Northsea Pioneer — 9HA3784 — position and weather

sailwx.info

Track history (hours):
 
Tides and Currents Weather Stations Pressure Air Temp Water Temp Dewpoint Dewpoint Depression Visibility Wind Speed Wind Dir Waves Ship Positions

Northsea Pioneer

Last reported at 2018-Jan-09 17:52 UTC. Time now 2018-Jan-21 03:15 UTC.
Position N 37°43' W 000°22'.
Warning: this ship's position is 11 days out of date.

Length 122 m; draft 5.9 m.

Type: Tanker. MMSI: 229998000.

Date/timePositionNaut miles runAvg speedWind from/ knotsBaromVisibWave heightAir tempDewpointWater temp
2018-Jan-09 17:52N 37°43' W 000°22'412.2
2018-Jan-09 17:30N 37°40' W 000°25'612.3
2018-Jan-09 17:01N 37°34' W 000°29'712.0
2018-Jan-09 16:26N 37°29' W 000°36'511.9
2018-Jan-09 16:00N 37°26' W 000°41'611.7
2018-Jan-09 15:31N 37°22' W 000°46'611.6
2018-Jan-09 15:01N 37°19' W 000°52'811.5
2018-Jan-09 14:21N 37°13' W 000°59'18111.7
2018-Jan-08 22:53N 36°06' W 004°28'513.0
2018-Jan-08 22:31N 36°05' W 004°34'713.3
2018-Jan-08 22:01N 36°04' W 004°42'612.9
2018-Jan-08 21:30N 36°03' W 004°50'612.6
2018-Jan-08 21:01N 36°02' W 004°58'1513.0
2018-Jan-08 19:53N 35°59' W 005°15'513.3
2018-Jan-08 19:30N 35°59' W 005°21'612.8
2018-Jan-08 19:00N 35°57' W 005°29'7 0.1
2018-Jan-06 17:01N 36°01' W 005°22'0 8.5
2018-Jan-06 17:00N 36°01' W 005°22'4 7.8
2018-Jan-06 16:30N 36°02' W 005°17'4 7.7
2018-Jan-06 15:58N 36°03' W 005°12'  
2018-Jan-01 15:00N 36°39' E 014°39'  
Track history (hours):
 
Tides and Currents Weather Stations Pressure Air Temp Water Temp Dewpoint Dewpoint Depression Visibility Wind Speed Wind Dir Waves Ship Positions

Northsea Pioneer

Last reported at 2018-Jan-09 17:52 UTC. Time now 2018-Jan-21 03:15 UTC.
Position N 37°43' W 000°22'.
Warning: this ship's position is 11 days out of date.

Length 122 m; draft 5.9 m.

Type: Tanker. MMSI: 229998000.

Date/timePositionNaut miles runAvg speedWind from/ knotsBaromVisibWave heightAir tempDewpointWater temp
2018-Jan-09 17:52N 37°43' W 000°22'412.2
2018-Jan-09 17:30N 37°40' W 000°25'612.3
2018-Jan-09 17:01N 37°34' W 000°29'712.0
2018-Jan-09 16:26N 37°29' W 000°36'511.9
2018-Jan-09 16:00N 37°26' W 000°41'611.7
2018-Jan-09 15:31N 37°22' W 000°46'611.6
2018-Jan-09 15:01N 37°19' W 000°52'811.5
2018-Jan-09 14:21N 37°13' W 000°59'18111.7
2018-Jan-08 22:53N 36°06' W 004°28'513.0
2018-Jan-08 22:31N 36°05' W 004°34'713.3
2018-Jan-08 22:01N 36°04' W 004°42'612.9
2018-Jan-08 21:30N 36°03' W 004°50'612.6
2018-Jan-08 21:01N 36°02' W 004°58'1513.0
2018-Jan-08 19:53N 35°59' W 005°15'513.3
2018-Jan-08 19:30N 35°59' W 005°21'612.8
2018-Jan-08 19:00N 35°57' W 005°29'7 0.1
2018-Jan-06 17:01N 36°01' W 005°22'0 8.5
2018-Jan-06 17:00N 36°01' W 005°22'4 7.8
2018-Jan-06 16:30N 36°02' W 005°17'4 7.7
2018-Jan-06 15:58N 36°03' W 005°12'  
2018-Jan-01 15:00N 36°39' E 014°39'  

Dump ship's entire track history